Home   Weather   Steckenroth   Past weeks
Flag for Germany

Past Weather in Steckenroth, Hesse, Germany — July 2018

Currently: 65 °F. Sunny. (Weather station: Wiesbaden Airport, Germany). See more current weather

July 2018 Weather in Steckenroth — Graph

°F

High & Low Weather Summary for July 2018

 TemperatureHumidityPressure
High96 °F (Jul 31, 4:56 pm)94% (Jul 11, 4:56 am)30.20 "Hg (Jul 11, 4:56 am)
Low52 °F (Jul 11, 4:56 am)16% (Jul 3, 3:56 pm)29.72 "Hg (Jul 28, 7:56 am)
Average74 °F51%29.99 "Hg
* Reported Jul 1 12:56 am — Jul 31 11:56 pm, Steckenroth. Weather by CustomWeather, © 2022

Note: Actual official high and low records may vary slightly from our data, if they occured in-between our weather recording intervals... More about our weather records

Steckenroth Weather History for July 1, 2018

Scroll right to see more
 ConditionsComfort  
Time TempWeatherWind HumidityBarometerVisibility
12:56 am
Sun, Jul 1
68 °FClear.12 mph30%29.99 "HgN/A
1:56 am66 °FClear.10 mph35%30.00 "HgN/A
2:56 am64 °FClear.12 mph37%30.03 "HgN/A
3:56 am63 °FClear.12 mph40%30.01 "HgN/A
4:56 am62 °FClear.12 mph42%30.01 "HgN/A
5:56 am61 °FSunny.9 mph45%30.02 "HgN/A
6:56 am63 °FSunny.9 mph42%30.03 "HgN/A
7:56 am64 °FSunny.13 mph41%30.03 "HgN/A
8:56 am66 °FSunny.15 mph40%30.04 "HgN/A
9:56 am69 °FSunny.18 mph35%30.03 "HgN/A
10:56 am72 °FSunny.14 mph31%30.03 "HgN/A
11:56 am73 °FSunny.9 mph29%30.03 "HgN/A
12:56 pm76 °FSunny.14 mph26%30.01 "HgN/A
1:56 pm77 °FSunny.14 mph26%30.01 "HgN/A
2:56 pm77 °FSunny.12 mph27%29.99 "HgN/A
3:56 pm79 °FSunny.14 mph26%29.98 "HgN/A
4:56 pm79 °FSunny.7 mph24%29.97 "HgN/A
5:56 pm79 °FSunny.13 mph25%29.96 "HgN/A
6:56 pm78 °FSunny.12 mph24%29.95 "HgN/A
7:56 pm78 °FSunny.10 mph24%29.95 "HgN/A
8:56 pm73 °FSunny.9 mph29%29.96 "HgN/A
9:56 pm69 °FClear.8 mph35%29.97 "HgN/A
10:56 pm68 °FClear.7 mph35%29.98 "HgN/A
11:56 pm66 °FClear.12 mph35%29.99 "HgN/A
Weather by CustomWeather, © 2022

See weather overview